createdAt,value
2018-12-26T00:04:33.547Z,-0.10
2018-12-26T00:09:38.943Z,-0.10
2018-12-26T00:14:44.280Z,-0.10
2018-12-26T00:19:50.708Z,0.00
2018-12-26T00:24:55.990Z,0.00
2018-12-26T00:30:01.309Z,0.00
2018-12-26T00:35:06.619Z,0.10
2018-12-26T00:40:11.956Z,0.00
2018-12-26T00:45:17.248Z,0.00
2018-12-26T00:50:22.571Z,0.00
2018-12-26T00:55:27.958Z,0.00
2018-12-26T01:00:33.264Z,0.10
2018-12-26T01:05:38.568Z,0.10
2018-12-26T01:10:43.875Z,0.10
2018-12-26T01:15:49.188Z,0.20
2018-12-26T01:20:54.515Z,0.20
2018-12-26T01:25:59.923Z,0.20
2018-12-26T01:31:05.236Z,0.20
2018-12-26T01:36:10.560Z,0.20
2018-12-26T01:41:15.884Z,0.20
2018-12-26T01:46:21.199Z,0.20
2018-12-26T01:51:26.527Z,0.10
2018-12-26T01:56:31.823Z,0.00
2018-12-26T02:01:37.131Z,-0.10
2018-12-26T02:06:42.445Z,-0.10
2018-12-26T02:11:47.868Z,-0.10
2018-12-26T02:16:53.187Z,-0.10
2018-12-26T02:21:58.530Z,-0.10
2018-12-26T02:27:03.855Z,-0.10
2018-12-26T02:32:09.244Z,-0.10
2018-12-26T02:37:14.563Z,-0.10
2018-12-26T02:42:19.888Z,-0.10
2018-12-26T02:47:25.199Z,-0.20
2018-12-26T02:52:31.073Z,-0.20
2018-12-26T02:57:36.380Z,-0.30
2018-12-26T03:02:41.713Z,-0.30
2018-12-26T03:07:47.047Z,-0.40
2018-12-26T03:12:52.362Z,-0.40
2018-12-26T03:17:57.704Z,-0.40
2018-12-26T03:23:03.074Z,-0.40
2018-12-26T03:28:08.334Z,-0.40
2018-12-26T03:33:13.710Z,-0.40
2018-12-26T03:38:19.020Z,-0.40
2018-12-26T03:43:24.600Z,-0.40
2018-12-26T03:48:30.136Z,-0.40
2018-12-26T03:53:35.639Z,-0.40
2018-12-26T03:58:40.957Z,-0.40
2018-12-26T04:03:46.259Z,-0.40
2018-12-26T04:08:51.559Z,-0.40
2018-12-26T04:13:56.895Z,-0.40
2018-12-26T04:19:03.420Z,-0.30
2018-12-26T04:24:08.721Z,-0.30
2018-12-26T04:29:14.029Z,-0.30
2018-12-26T04:34:19.487Z,-0.20
2018-12-26T04:39:24.771Z,-0.20
2018-12-26T04:44:30.079Z,-0.20
2018-12-26T04:49:35.357Z,-0.20
2018-12-26T04:54:40.651Z,-0.20
2018-12-26T04:59:45.981Z,-0.20
2018-12-26T05:04:51.290Z,-0.20
2018-12-26T05:09:57.662Z,-0.20
2018-12-26T05:15:02.984Z,-0.10
2018-12-26T05:20:08.293Z,-0.10
2018-12-26T05:25:13.571Z,0.00
2018-12-26T05:30:18.873Z,0.00
2018-12-26T05:35:24.155Z,0.00
2018-12-26T05:40:29.443Z,0.00
2018-12-26T05:45:34.739Z,0.00
2018-12-26T05:50:40.034Z,0.00
2018-12-26T05:55:45.343Z,0.00
2018-12-26T06:00:50.647Z,0.00
2018-12-26T06:05:55.930Z,0.00
2018-12-26T06:11:01.626Z,0.00
2018-12-26T06:16:06.931Z,0.00
2018-12-26T06:21:12.268Z,0.00
2018-12-26T06:26:17.563Z,-0.10
2018-12-26T06:31:22.875Z,-0.10
2018-12-26T06:36:28.184Z,-0.10
2018-12-26T06:41:33.479Z,-0.20
2018-12-26T06:46:38.812Z,-0.30
2018-12-26T06:51:44.143Z,-0.40
2018-12-26T06:56:49.459Z,-0.50
2018-12-26T07:01:54.771Z,-0.60
2018-12-26T07:07:00.098Z,-0.60
2018-12-26T07:12:04.979Z,-0.70
2018-12-26T07:17:10.651Z,-0.70
2018-12-26T07:22:15.967Z,-0.70
2018-12-26T07:27:21.281Z,-0.70
2018-12-26T07:32:26.599Z,-0.70
2018-12-26T07:37:31.909Z,-0.80
2018-12-26T07:42:37.256Z,-0.90
2018-12-26T07:47:42.564Z,-0.90
2018-12-26T07:52:47.884Z,-0.80
2018-12-26T07:57:53.184Z,-0.70
2018-12-26T08:02:58.512Z,-0.60
2018-12-26T08:08:03.822Z,-0.40
2018-12-26T08:13:09.114Z,-0.40
2018-12-26T08:18:14.463Z,-0.20
2018-12-26T08:23:19.773Z,-0.30
2018-12-26T08:28:26.783Z,-0.50
2018-12-26T08:33:32.011Z,-0.50
2018-12-26T08:38:37.580Z,-0.50
2018-12-26T08:43:42.911Z,-0.60
2018-12-26T08:48:48.204Z,-0.60
2018-12-26T08:53:53.487Z,-0.50
2018-12-26T08:58:58.780Z,-0.30
2018-12-26T09:04:04.943Z,-0.20
2018-12-26T09:09:10.239Z,-0.10
2018-12-26T09:14:15.595Z,-0.40
2018-12-26T09:19:20.935Z,-0.50
2018-12-26T09:24:26.580Z,-0.30
2018-12-26T09:29:31.934Z,-0.40
2018-12-26T09:34:37.277Z,-0.40
2018-12-26T09:39:42.593Z,-0.40
2018-12-26T09:44:54.294Z,-0.40
2018-12-26T09:49:54.832Z,-0.40
2018-12-26T09:55:00.283Z,-0.40
2018-12-26T10:00:06.267Z,-0.40
2018-12-26T10:05:11.563Z,-0.30
2018-12-26T10:10:16.940Z,-0.40
2018-12-26T10:15:22.246Z,-0.30
2018-12-26T10:20:27.609Z,-0.20
2018-12-26T10:25:32.919Z,-0.10
2018-12-26T10:30:38.299Z,-0.10
2018-12-26T10:35:43.635Z,0.30
2018-12-26T10:40:48.919Z,0.20
2018-12-26T10:45:54.220Z,0.40
2018-12-26T10:50:59.567Z,0.60
2018-12-26T10:56:04.871Z,0.20
2018-12-26T11:01:10.239Z,0.30
2018-12-26T11:06:16.614Z,0.30
2018-12-26T11:11:21.908Z,0.40
2018-12-26T11:16:27.223Z,0.30
2018-12-26T11:21:32.542Z,0.30
2018-12-26T11:26:37.851Z,0.40
2018-12-26T11:31:43.170Z,0.40
2018-12-26T11:36:48.528Z,0.50
2018-12-26T11:41:53.819Z,0.40
2018-12-26T11:46:59.204Z,0.50
2018-12-26T11:52:04.555Z,0.40
2018-12-26T11:57:09.860Z,0.30
2018-12-26T12:02:20.561Z,0.40
2018-12-26T12:07:22.058Z,0.50
2018-12-26T12:12:27.340Z,0.40
2018-12-26T12:17:32.630Z,0.40
2018-12-26T12:22:37.912Z,0.40
2018-12-26T12:27:43.203Z,0.30
2018-12-26T12:32:48.524Z,0.30
2018-12-26T12:37:54.031Z,0.40
2018-12-26T12:42:59.334Z,0.30
2018-12-26T12:48:04.646Z,0.30
2018-12-26T12:53:09.943Z,0.40
2018-12-26T12:58:15.228Z,0.50
2018-12-26T13:03:20.522Z,0.30
2018-12-26T13:08:25.898Z,0.30
2018-12-26T13:13:31.818Z,0.30
2018-12-26T13:18:37.227Z,0.20
2018-12-26T13:23:42.567Z,0.20
2018-12-26T13:28:47.863Z,0.20
2018-12-26T13:33:53.151Z,0.20
2018-12-26T13:38:58.509Z,0.20
2018-12-26T13:44:03.795Z,0.10
2018-12-26T13:49:09.095Z,0.20
2018-12-26T13:54:14.389Z,-0.10
2018-12-26T13:59:20.978Z,-0.10
2018-12-26T14:04:26.350Z,0.00
2018-12-26T14:09:32.878Z,-0.20
2018-12-26T14:14:39.549Z,-0.10
2018-12-26T14:19:45.012Z,-0.30
2018-12-26T14:24:50.309Z,-0.30
2018-12-26T14:29:55.603Z,-0.40
2018-12-26T14:35:00.889Z,-0.40
2018-12-26T14:40:06.347Z,-0.40
2018-12-26T14:45:11.631Z,-0.40
2018-12-26T14:50:16.919Z,-0.40
2018-12-26T14:55:22.203Z,-0.40
2018-12-26T15:00:27.547Z,-0.40
2018-12-26T15:05:32.843Z,-0.40
2018-12-26T15:10:38.281Z,-0.60
2018-12-26T15:15:43.900Z,-0.60
2018-12-26T15:20:49.273Z,-0.60
2018-12-26T15:25:54.671Z,-0.60
2018-12-26T15:30:59.992Z,-0.60
2018-12-26T15:36:05.347Z,-0.70
2018-12-26T15:41:10.790Z,-0.70
2018-12-26T15:46:16.171Z,-0.70
2018-12-26T15:51:21.518Z,-0.70
2018-12-26T15:56:26.971Z,-0.80
2018-12-26T16:01:32.251Z,-0.80
2018-12-26T16:06:37.538Z,-0.80
2018-12-26T16:11:42.834Z,-0.80
2018-12-26T16:16:48.106Z,-0.70
2018-12-26T16:21:53.401Z,-0.80
2018-12-26T16:26:58.679Z,-0.70
2018-12-26T16:32:03.958Z,-0.60
2018-12-26T16:37:09.364Z,-0.60
2018-12-26T16:42:16.825Z,-0.60
2018-12-26T16:47:21.623Z,-0.60
2018-12-26T16:52:26.959Z,-0.60
2018-12-26T16:57:32.271Z,-0.50
2018-12-26T17:02:37.584Z,-0.50
2018-12-26T17:07:42.878Z,-0.50
2018-12-26T17:12:48.167Z,-0.50
2018-12-26T17:17:53.492Z,-0.50
2018-12-26T17:22:58.800Z,-0.60
2018-12-26T17:28:04.184Z,-0.50
2018-12-26T17:33:09.547Z,-0.50
2018-12-26T17:38:15.000Z,-0.50
2018-12-26T17:43:20.359Z,-0.50
2018-12-26T17:48:25.756Z,-0.50
2018-12-26T17:54:01.609Z,-0.50
2018-12-26T17:59:19.996Z,-0.50
2018-12-26T18:04:25.357Z,-0.40
2018-12-26T18:09:30.654Z,-0.40
2018-12-26T18:14:35.944Z,-0.40
2018-12-26T18:19:41.271Z,-0.40
2018-12-26T18:24:46.555Z,-0.40
2018-12-26T18:29:51.893Z,-0.40
2018-12-26T18:34:57.591Z,-0.40
2018-12-26T18:40:03.167Z,-0.50
2018-12-26T18:45:09.431Z,-0.50
2018-12-26T18:50:14.732Z,-0.60
2018-12-26T18:55:20.019Z,-0.60
2018-12-26T19:00:25.534Z,-0.60
2018-12-26T19:05:30.815Z,-0.50
2018-12-26T19:10:36.100Z,-0.50
2018-12-26T19:15:41.414Z,-0.60
2018-12-26T19:20:46.818Z,-0.60
2018-12-26T19:25:52.047Z,-0.60
2018-12-26T19:30:57.394Z,-0.50
2018-12-26T19:36:02.756Z,-0.50
2018-12-26T19:41:08.043Z,-0.50
2018-12-26T19:46:13.371Z,-0.40
2018-12-26T19:51:18.661Z,-0.40
2018-12-26T19:56:23.983Z,-0.50
2018-12-26T20:01:29.275Z,-0.40
2018-12-26T20:06:34.575Z,-0.40
2018-12-26T20:11:39.872Z,-0.40
2018-12-26T20:16:47.254Z,-0.40
2018-12-26T20:21:53.141Z,-0.40
2018-12-26T20:26:58.552Z,-0.40
2018-12-26T20:32:03.919Z,-0.40
2018-12-26T20:37:09.205Z,-0.40
2018-12-26T20:42:14.487Z,-0.40
2018-12-26T20:47:19.782Z,-0.40
2018-12-26T20:52:25.096Z,-0.40
2018-12-26T20:57:30.407Z,-0.40
2018-12-26T21:02:35.743Z,-0.40
2018-12-26T21:07:42.070Z,-0.40
2018-12-26T21:12:47.350Z,-0.40
2018-12-26T21:17:52.662Z,-0.40
2018-12-26T21:22:58.027Z,-0.40
2018-12-26T21:28:03.338Z,-0.30
2018-12-26T21:33:08.686Z,-0.30
2018-12-26T21:38:14.212Z,-0.30
2018-12-26T21:43:19.540Z,-0.30
2018-12-26T21:48:24.900Z,-0.30
2018-12-26T21:53:30.211Z,-0.30
2018-12-26T21:58:35.547Z,-0.30
2018-12-26T22:03:41.023Z,-0.30
2018-12-26T22:08:46.379Z,-0.20
2018-12-26T22:13:51.731Z,-0.30
2018-12-26T22:18:57.107Z,-0.20
2018-12-26T22:24:02.394Z,-0.20
2018-12-26T22:29:07.746Z,-0.30
2018-12-26T22:34:13.063Z,-0.20
2018-12-26T22:39:18.439Z,-0.20
2018-12-26T22:44:27.711Z,-0.20
2018-12-26T22:49:30.813Z,-0.30
2018-12-26T22:54:36.315Z,-0.30
2018-12-26T22:59:41.603Z,-0.30
2018-12-26T23:04:46.906Z,-0.30
2018-12-26T23:09:52.203Z,-0.20
2018-12-26T23:14:57.492Z,-0.20
2018-12-26T23:20:02.819Z,-0.20
2018-12-26T23:25:08.195Z,-0.20
2018-12-26T23:30:13.568Z,-0.20
2018-12-26T23:35:18.861Z,-0.20
2018-12-26T23:40:24.155Z,-0.20
2018-12-26T23:45:29.447Z,-0.20
2018-12-26T23:50:34.747Z,-0.20
2018-12-26T23:55:40.051Z,-0.30
